sensor_id;sensor_type;location;lat;lon;timestamp;temperature;humidity
15203;DHT22;7702;51.046;5.184;2022-08-02T00:01:50;17.50;99.90
15203;DHT22;7702;51.046;5.184;2022-08-02T00:04:16;17.40;99.90
15203;DHT22;7702;51.046;5.184;2022-08-02T00:06:42;17.40;99.90
15203;DHT22;7702;51.046;5.184;2022-08-02T00:09:08;17.40;99.90
15203;DHT22;7702;51.046;5.184;2022-08-02T00:11:34;17.30;99.90
15203;DHT22;7702;51.046;5.184;2022-08-02T00:14:00;17.30;99.90
15203;DHT22;7702;51.046;5.184;2022-08-02T00:16:26;17.40;99.90
15203;DHT22;7702;51.046;5.184;2022-08-02T00:18:52;17.40;99.90
15203;DHT22;7702;51.046;5.184;2022-08-02T00:21:18;17.30;99.90
15203;DHT22;7702;51.046;5.184;2022-08-02T00:23:43;17.30;99.90
15203;DHT22;7702;51.046;5.184;2022-08-02T00:26:09;17.30;99.90
15203;DHT22;7702;51.046;5.184;2022-08-02T00:28:35;17.30;99.90
15203;DHT22;7702;51.046;5.184;2022-08-02T00:31:00;17.20;99.90
15203;DHT22;7702;51.046;5.184;2022-08-02T00:33:26;17.20;99.90
15203;DHT22;7702;51.046;5.184;2022-08-02T00:35:52;17.30;99.90
15203;DHT22;7702;51.046;5.184;2022-08-02T00:38:18;17.20;99.90
15203;DHT22;7702;51.046;5.184;2022-08-02T00:40:48;17.20;99.90
15203;DHT22;7702;51.046;5.184;2022-08-02T00:43:14;17.20;99.90
15203;DHT22;7702;51.046;5.184;2022-08-02T00:45:41;17.10;99.90
15203;DHT22;7702;51.046;5.184;2022-08-02T00:48:08;17.10;99.90
15203;DHT22;7702;51.046;5.184;2022-08-02T00:50:35;17.00;99.90
15203;DHT22;7702;51.046;5.184;2022-08-02T00:53:01;17.00;99.90
15203;DHT22;7702;51.046;5.184;2022-08-02T00:55:28;17.00;99.90
15203;DHT22;7702;51.046;5.184;2022-08-02T00:57:53;16.90;99.90
15203;DHT22;7702;51.046;5.184;2022-08-02T01:00:20;16.90;99.90
15203;DHT22;7702;51.046;5.184;2022-08-02T01:02:46;16.90;99.90
15203;DHT22;7702;51.046;5.184;2022-08-02T01:05:13;16.90;99.90
15203;DHT22;7702;51.046;5.184;2022-08-02T01:07:38;16.80;99.90
15203;DHT22;7702;51.046;5.184;2022-08-02T01:10:05;16.80;99.90
15203;DHT22;7702;51.046;5.184;2022-08-02T01:12:31;16.80;99.90
15203;DHT22;7702;51.046;5.184;2022-08-02T01:14:59;16.80;99.90
15203;DHT22;7702;51.046;5.184;2022-08-02T01:18:08;16.80;99.90
15203;DHT22;7702;51.046;5.184;2022-08-02T01:27:01;16.70;99.90
15203;DHT22;7702;51.046;5.184;2022-08-02T01:29:33;16.70;99.90
15203;DHT22;7702;51.046;5.184;2022-08-02T01:32:18;16.80;99.90
15203;DHT22;7702;51.046;5.184;2022-08-02T01:37:31;16.70;99.90
15203;DHT22;7702;51.046;5.184;2022-08-02T01:40:30;16.60;99.90
15203;DHT22;7702;51.046;5.184;2022-08-02T01:42:55;16.70;99.90
15203;DHT22;7702;51.046;5.184;2022-08-02T01:45:24;16.70;99.90
15203;DHT22;7702;51.046;5.184;2022-08-02T01:47:51;16.70;99.90
15203;DHT22;7702;51.046;5.184;2022-08-02T01:50:22;16.60;99.90
15203;DHT22;7702;51.046;5.184;2022-08-02T01:52:51;16.60;99.90
15203;DHT22;7702;51.046;5.184;2022-08-02T01:57:56;16.60;99.90
15203;DHT22;7702;51.046;5.184;2022-08-02T02:00:25;16.50;99.90
15203;DHT22;7702;51.046;5.184;2022-08-02T02:02:55;16.40;99.90
15203;DHT22;7702;51.046;5.184;2022-08-02T02:05:23;16.40;99.90
15203;DHT22;7702;51.046;5.184;2022-08-02T02:07:54;16.40;99.90
15203;DHT22;7702;51.046;5.184;2022-08-02T02:10:29;16.30;99.90
15203;DHT22;7702;51.046;5.184;2022-08-02T02:13:00;16.30;99.90
15203;DHT22;7702;51.046;5.184;2022-08-02T02:15:29;16.20;99.90
15203;DHT22;7702;51.046;5.184;2022-08-02T02:17:57;16.20;99.90
15203;DHT22;7702;51.046;5.184;2022-08-02T02:20:23;16.20;99.90
15203;DHT22;7702;51.046;5.184;2022-08-02T02:22:50;16.10;99.90
15203;DHT22;7702;51.046;5.184;2022-08-02T02:25:19;16.10;99.90
15203;DHT22;7702;51.046;5.184;2022-08-02T02:27:51;16.10;99.90
15203;DHT22;7702;51.046;5.184;2022-08-02T02:30:18;16.00;99.90
15203;DHT22;7702;51.046;5.184;2022-08-02T02:32:46;16.00;99.90
15203;DHT22;7702;51.046;5.184;2022-08-02T02:35:15;15.90;99.90
15203;DHT22;7702;51.046;5.184;2022-08-02T02:37:42;16.00;99.90
15203;DHT22;7702;51.046;5.184;2022-08-02T02:40:10;16.00;99.90
15203;DHT22;7702;51.046;5.184;2022-08-02T02:42:36;15.90;99.90
15203;DHT22;7702;51.046;5.184;2022-08-02T02:45:03;15.90;99.90
15203;DHT22;7702;51.046;5.184;2022-08-02T02:47:29;15.90;99.90
15203;DHT22;7702;51.046;5.184;2022-08-02T02:49:56;15.90;99.90
15203;DHT22;7702;51.046;5.184;2022-08-02T02:52:23;15.90;99.90
15203;DHT22;7702;51.046;5.184;2022-08-02T02:54:50;15.80;99.90
15203;DHT22;7702;51.046;5.184;2022-08-02T02:57:17;15.80;99.90
15203;DHT22;7702;51.046;5.184;2022-08-02T02:59:43;15.80;99.90
15203;DHT22;7702;51.046;5.184;2022-08-02T03:02:09;15.80;99.90
15203;DHT22;7702;51.046;5.184;2022-08-02T03:04:36;15.70;99.90
15203;DHT22;7702;51.046;5.184;2022-08-02T03:07:02;15.70;99.90
15203;DHT22;7702;51.046;5.184;2022-08-02T03:09:28;15.70;99.90
15203;DHT22;7702;51.046;5.184;2022-08-02T03:11:54;15.70;99.90
15203;DHT22;7702;51.046;5.184;2022-08-02T03:14:21;15.70;99.90
15203;DHT22;7702;51.046;5.184;2022-08-02T03:16:49;15.70;99.90
15203;DHT22;7702;51.046;5.184;2022-08-02T03:19:16;15.60;99.90
15203;DHT22;7702;51.046;5.184;2022-08-02T03:21:43;15.60;99.90
15203;DHT22;7702;51.046;5.184;2022-08-02T03:24:09;15.60;99.90
15203;DHT22;7702;51.046;5.184;2022-08-02T03:26:35;15.60;99.90
15203;DHT22;7702;51.046;5.184;2022-08-02T03:29:01;15.60;99.90
15203;DHT22;7702;51.046;5.184;2022-08-02T03:31:28;15.50;99.90
15203;DHT22;7702;51.046;5.184;2022-08-02T03:33:58;15.50;99.90
15203;DHT22;7702;51.046;5.184;2022-08-02T03:36:26;15.50;99.90
15203;DHT22;7702;51.046;5.184;2022-08-02T03:38:52;15.50;99.90
15203;DHT22;7702;51.046;5.184;2022-08-02T03:41:19;15.50;99.90
15203;DHT22;7702;51.046;5.184;2022-08-02T03:43:46;15.50;99.90
15203;DHT22;7702;51.046;5.184;2022-08-02T03:46:16;15.40;99.90
15203;DHT22;7702;51.046;5.184;2022-08-02T03:48:42;15.40;99.90
15203;DHT22;7702;51.046;5.184;2022-08-02T03:51:08;15.40;99.90
15203;DHT22;7702;51.046;5.184;2022-08-02T03:53:35;15.50;99.90
15203;DHT22;7702;51.046;5.184;2022-08-02T03:56:02;15.50;99.90
15203;DHT22;7702;51.046;5.184;2022-08-02T03:58:28;15.50;99.90
15203;DHT22;7702;51.046;5.184;2022-08-02T04:00:56;15.60;99.90
15203;DHT22;7702;51.046;5.184;2022-08-02T04:03:22;15.70;99.90
15203;DHT22;7702;51.046;5.184;2022-08-02T04:05:48;15.80;99.90
15203;DHT22;7702;51.046;5.184;2022-08-02T04:08:14;15.90;99.90
15203;DHT22;7702;51.046;5.184;2022-08-02T04:10:40;16.00;99.90
15203;DHT22;7702;51.046;5.184;2022-08-02T04:13:30;16.10;99.90
15203;DHT22;7702;51.046;5.184;2022-08-02T04:16:01;16.10;99.90
15203;DHT22;7702;51.046;5.184;2022-08-02T04:18:33;16.20;99.90
15203;DHT22;7702;51.046;5.184;2022-08-02T04:21:01;16.20;99.90
15203;DHT22;7702;51.046;5.184;2022-08-02T04:23:30;16.20;99.90
15203;DHT22;7702;51.046;5.184;2022-08-02T04:25:56;16.20;99.90
15203;DHT22;7702;51.046;5.184;2022-08-02T04:28:23;16.30;99.90
15203;DHT22;7702;51.046;5.184;2022-08-02T04:30:49;16.30;99.90
15203;DHT22;7702;51.046;5.184;2022-08-02T04:33:16;16.20;99.90
15203;DHT22;7702;51.046;5.184;2022-08-02T04:35:42;16.30;99.90
15203;DHT22;7702;51.046;5.184;2022-08-02T04:38:09;16.30;99.90
15203;DHT22;7702;51.046;5.184;2022-08-02T04:40:35;16.40;99.90
15203;DHT22;7702;51.046;5.184;2022-08-02T04:43:01;16.40;99.90
15203;DHT22;7702;51.046;5.184;2022-08-02T04:45:28;16.40;99.90
15203;DHT22;7702;51.046;5.184;2022-08-02T04:47:54;16.40;99.90
15203;DHT22;7702;51.046;5.184;2022-08-02T04:50:20;16.50;99.90
15203;DHT22;7702;51.046;5.184;2022-08-02T04:52:46;16.60;99.90
15203;DHT22;7702;51.046;5.184;2022-08-02T04:55:12;16.70;99.90
15203;DHT22;7702;51.046;5.184;2022-08-02T04:57:37;16.70;99.90
15203;DHT22;7702;51.046;5.184;2022-08-02T05:00:22;16.80;99.90
15203;DHT22;7702;51.046;5.184;2022-08-02T05:02:48;16.80;99.90
15203;DHT22;7702;51.046;5.184;2022-08-02T05:05:15;16.90;99.90
15203;DHT22;7702;51.046;5.184;2022-08-02T05:07:41;16.90;99.90
15203;DHT22;7702;51.046;5.184;2022-08-02T05:10:07;17.00;99.90
15203;DHT22;7702;51.046;5.184;2022-08-02T05:12:32;17.10;99.90
15203;DHT22;7702;51.046;5.184;2022-08-02T05:14:58;17.10;99.90
15203;DHT22;7702;51.046;5.184;2022-08-02T05:17:24;17.20;99.90
15203;DHT22;7702;51.046;5.184;2022-08-02T05:19:49;17.40;99.90
15203;DHT22;7702;51.046;5.184;2022-08-02T05:22:15;17.60;99.90
15203;DHT22;7702;51.046;5.184;2022-08-02T05:24:41;17.70;99.90
15203;DHT22;7702;51.046;5.184;2022-08-02T05:27:06;17.80;99.90
15203;DHT22;7702;51.046;5.184;2022-08-02T05:29:32;17.90;99.90
15203;DHT22;7702;51.046;5.184;2022-08-02T05:31:59;18.00;99.90
15203;DHT22;7702;51.046;5.184;2022-08-02T05:34:25;18.00;99.90
15203;DHT22;7702;51.046;5.184;2022-08-02T05:36:50;18.10;99.90
15203;DHT22;7702;51.046;5.184;2022-08-02T05:39:16;18.20;99.90
15203;DHT22;7702;51.046;5.184;2022-08-02T05:41:41;18.20;99.90
15203;DHT22;7702;51.046;5.184;2022-08-02T05:44:07;18.20;99.90
15203;DHT22;7702;51.046;5.184;2022-08-02T05:46:33;18.10;99.90
15203;DHT22;7702;51.046;5.184;2022-08-02T05:48:59;18.20;99.90
15203;DHT22;7702;51.046;5.184;2022-08-02T05:51:43;18.30;99.90
15203;DHT22;7702;51.046;5.184;2022-08-02T05:56:55;18.50;99.90
15203;DHT22;7702;51.046;5.184;2022-08-02T06:00:26;18.50;99.90
15203;DHT22;7702;51.046;5.184;2022-08-02T06:02:54;18.70;99.90
15203;DHT22;7702;51.046;5.184;2022-08-02T06:05:26;18.90;99.90
15203;DHT22;7702;51.046;5.184;2022-08-02T06:07:54;19.00;99.90
15203;DHT22;7702;51.046;5.184;2022-08-02T06:10:23;19.10;99.90
15203;DHT22;7702;51.046;5.184;2022-08-02T06:15:27;19.20;99.90
15203;DHT22;7702;51.046;5.184;2022-08-02T06:17:53;19.40;99.90
15203;DHT22;7702;51.046;5.184;2022-08-02T06:20:19;19.50;99.90
15203;DHT22;7702;51.046;5.184;2022-08-02T06:22:45;19.60;99.90
15203;DHT22;7702;51.046;5.184;2022-08-02T06:25:12;19.70;99.90
15203;DHT22;7702;51.046;5.184;2022-08-02T06:27:39;19.80;99.90
15203;DHT22;7702;51.046;5.184;2022-08-02T06:30:08;20.00;99.90
15203;DHT22;7702;51.046;5.184;2022-08-02T06:32:34;20.20;99.90
15203;DHT22;7702;51.046;5.184;2022-08-02T06:35:00;20.40;99.90
15203;DHT22;7702;51.046;5.184;2022-08-02T06:37:30;20.50;99.90
15203;DHT22;7702;51.046;5.184;2022-08-02T06:40:17;20.50;99.90
15203;DHT22;7702;51.046;5.184;2022-08-02T06:45:17;20.60;99.90
15203;DHT22;7702;51.046;5.184;2022-08-02T06:47:43;20.90;99.90
15203;DHT22;7702;51.046;5.184;2022-08-02T06:50:10;21.00;99.90
15203;DHT22;7702;51.046;5.184;2022-08-02T06:52:37;21.00;99.90
15203;DHT22;7702;51.046;5.184;2022-08-02T06:55:04;21.10;99.90
15203;DHT22;7702;51.046;5.184;2022-08-02T06:57:31;21.10;99.90
15203;DHT22;7702;51.046;5.184;2022-08-02T06:59:57;21.30;99.90
15203;DHT22;7702;51.046;5.184;2022-08-02T07:02:26;21.50;99.90
15203;DHT22;7702;51.046;5.184;2022-08-02T07:04:52;21.60;99.90
15203;DHT22;7702;51.046;5.184;2022-08-02T07:07:18;21.70;99.90
15203;DHT22;7702;51.046;5.184;2022-08-02T07:09:44;21.90;99.90
15203;DHT22;7702;51.046;5.184;2022-08-02T07:12:10;22.00;99.90
15203;DHT22;7702;51.046;5.184;2022-08-02T07:14:35;22.10;99.90
15203;DHT22;7702;51.046;5.184;2022-08-02T07:17:01;22.20;99.90
15203;DHT22;7702;51.046;5.184;2022-08-02T07:19:27;22.40;99.90
15203;DHT22;7702;51.046;5.184;2022-08-02T07:21:53;22.30;99.90
15203;DHT22;7702;51.046;5.184;2022-08-02T07:24:18;22.40;99.90
15203;DHT22;7702;51.046;5.184;2022-08-02T07:26:44;22.50;99.90
15203;DHT22;7702;51.046;5.184;2022-08-02T07:29:09;22.50;99.90
15203;DHT22;7702;51.046;5.184;2022-08-02T07:31:36;22.50;99.90
15203;DHT22;7702;51.046;5.184;2022-08-02T07:34:01;22.80;99.90
15203;DHT22;7702;51.046;5.184;2022-08-02T07:36:27;23.00;99.90
15203;DHT22;7702;51.046;5.184;2022-08-02T07:38:52;22.80;99.90
15203;DHT22;7702;51.046;5.184;2022-08-02T07:41:18;22.90;99.90
15203;DHT22;7702;51.046;5.184;2022-08-02T07:43:44;23.10;99.90
15203;DHT22;7702;51.046;5.184;2022-08-02T07:46:09;23.10;99.90
15203;DHT22;7702;51.046;5.184;2022-08-02T07:48:35;23.00;99.90
15203;DHT22;7702;51.046;5.184;2022-08-02T07:51:01;23.10;99.90
15203;DHT22;7702;51.046;5.184;2022-08-02T07:53:27;23.30;99.90
15203;DHT22;7702;51.046;5.184;2022-08-02T07:55:52;23.40;99.90
15203;DHT22;7702;51.046;5.184;2022-08-02T07:58:18;23.50;99.90
15203;DHT22;7702;51.046;5.184;2022-08-02T08:00:44;23.50;99.90
15203;DHT22;7702;51.046;5.184;2022-08-02T08:03:10;23.60;99.90
15203;DHT22;7702;51.046;5.184;2022-08-02T08:05:36;23.60;99.90
15203;DHT22;7702;51.046;5.184;2022-08-02T08:08:02;23.70;99.90
15203;DHT22;7702;51.046;5.184;2022-08-02T08:10:27;23.80;99.90
15203;DHT22;7702;51.046;5.184;2022-08-02T08:12:54;24.10;99.90
15203;DHT22;7702;51.046;5.184;2022-08-02T08:15:20;24.20;99.90
15203;DHT22;7702;51.046;5.184;2022-08-02T08:17:45;24.10;99.90
15203;DHT22;7702;51.046;5.184;2022-08-02T08:20:11;24.20;99.90
15203;DHT22;7702;51.046;5.184;2022-08-02T08:22:37;24.40;99.90
15203;DHT22;7702;51.046;5.184;2022-08-02T08:25:03;24.60;99.90
15203;DHT22;7702;51.046;5.184;2022-08-02T08:27:28;24.80;99.90
15203;DHT22;7702;51.046;5.184;2022-08-02T08:29:54;24.80;99.90
15203;DHT22;7702;51.046;5.184;2022-08-02T08:32:20;24.40;99.90
15203;DHT22;7702;51.046;5.184;2022-08-02T08:34:46;24.40;99.90
15203;DHT22;7702;51.046;5.184;2022-08-02T08:37:12;24.50;99.90
15203;DHT22;7702;51.046;5.184;2022-08-02T08:39:38;24.40;99.90
15203;DHT22;7702;51.046;5.184;2022-08-02T08:42:08;24.50;99.90
15203;DHT22;7702;51.046;5.184;2022-08-02T08:44:34;24.60;99.90
15203;DHT22;7702;51.046;5.184;2022-08-02T08:47:00;24.70;99.90
15203;DHT22;7702;51.046;5.184;2022-08-02T08:49:40;25.10;99.90
15203;DHT22;7702;51.046;5.184;2022-08-02T08:52:10;25.40;99.90
15203;DHT22;7702;51.046;5.184;2022-08-02T08:54:37;25.80;99.90
15203;DHT22;7702;51.046;5.184;2022-08-02T08:57:05;25.70;99.90
15203;DHT22;7702;51.046;5.184;2022-08-02T08:59:31;25.80;99.90
15203;DHT22;7702;51.046;5.184;2022-08-02T09:01:57;25.70;99.90
15203;DHT22;7702;51.046;5.184;2022-08-02T09:04:23;25.90;99.90
15203;DHT22;7702;51.046;5.184;2022-08-02T09:06:48;26.30;99.90
15203;DHT22;7702;51.046;5.184;2022-08-02T09:09:14;26.40;99.90
15203;DHT22;7702;51.046;5.184;2022-08-02T09:11:40;26.50;99.90
15203;DHT22;7702;51.046;5.184;2022-08-02T09:14:05;26.50;99.90
15203;DHT22;7702;51.046;5.184;2022-08-02T09:16:34;26.70;99.90
15203;DHT22;7702;51.046;5.184;2022-08-02T09:19:20;26.80;99.90
15203;DHT22;7702;51.046;5.184;2022-08-02T09:21:48;27.10;99.90
15203;DHT22;7702;51.046;5.184;2022-08-02T09:24:18;27.10;99.90
15203;DHT22;7702;51.046;5.184;2022-08-02T09:26:45;27.40;99.90
15203;DHT22;7702;51.046;5.184;2022-08-02T09:29:11;27.70;99.90
15203;DHT22;7702;51.046;5.184;2022-08-02T09:31:38;27.50;99.90
15203;DHT22;7702;51.046;5.184;2022-08-02T09:34:04;27.10;99.90
15203;DHT22;7702;51.046;5.184;2022-08-02T09:36:43;27.00;99.90
15203;DHT22;7702;51.046;5.184;2022-08-02T09:39:14;26.80;99.90
15203;DHT22;7702;51.046;5.184;2022-08-02T09:41:42;27.20;99.90
15203;DHT22;7702;51.046;5.184;2022-08-02T09:44:09;27.10;99.90
15203;DHT22;7702;51.046;5.184;2022-08-02T09:46:37;27.10;99.90
15203;DHT22;7702;51.046;5.184;2022-08-02T09:49:08;27.40;99.90
15203;DHT22;7702;51.046;5.184;2022-08-02T09:51:40;27.10;99.90
15203;DHT22;7702;51.046;5.184;2022-08-02T09:54:17;27.10;99.90
15203;DHT22;7702;51.046;5.184;2022-08-02T09:56:45;27.00;99.90
15203;DHT22;7702;51.046;5.184;2022-08-02T09:59:13;27.10;99.90
15203;DHT22;7702;51.046;5.184;2022-08-02T10:01:39;27.50;99.90
15203;DHT22;7702;51.046;5.184;2022-08-02T10:04:07;28.10;99.90
15203;DHT22;7702;51.046;5.184;2022-08-02T10:06:35;28.50;99.90
15203;DHT22;7702;51.046;5.184;2022-08-02T10:09:02;28.30;99.90
15203;DHT22;7702;51.046;5.184;2022-08-02T10:11:28;28.00;99.90
15203;DHT22;7702;51.046;5.184;2022-08-02T10:13:55;27.80;99.90
15203;DHT22;7702;51.046;5.184;2022-08-02T10:16:22;27.80;99.90
15203;DHT22;7702;51.046;5.184;2022-08-02T10:18:53;27.80;99.90
15203;DHT22;7702;51.046;5.184;2022-08-02T10:21:23;28.10;99.90
15203;DHT22;7702;51.046;5.184;2022-08-02T10:24:15;27.80;99.90
15203;DHT22;7702;51.046;5.184;2022-08-02T10:26:43;27.90;99.90
15203;DHT22;7702;51.046;5.184;2022-08-02T10:29:10;28.30;99.90
15203;DHT22;7702;51.046;5.184;2022-08-02T10:34:20;29.40;99.90
15203;DHT22;7702;51.046;5.184;2022-08-02T10:36:47;29.60;99.90
15203;DHT22;7702;51.046;5.184;2022-08-02T10:39:13;29.10;99.90
15203;DHT22;7702;51.046;5.184;2022-08-02T10:41:50;29.20;99.90
15203;DHT22;7702;51.046;5.184;2022-08-02T10:44:25;29.00;99.90
15203;DHT22;7702;51.046;5.184;2022-08-02T10:47:05;29.40;99.90
15203;DHT22;7702;51.046;5.184;2022-08-02T10:49:48;29.70;99.90
15203;DHT22;7702;51.046;5.184;2022-08-02T10:52:15;29.10;99.90
15203;DHT22;7702;51.046;5.184;2022-08-02T10:57:23;29.00;99.90
15203;DHT22;7702;51.046;5.184;2022-08-02T10:59:51;29.30;99.90
15203;DHT22;7702;51.046;5.184;2022-08-02T11:02:44;29.30;99.90
15203;DHT22;7702;51.046;5.184;2022-08-02T11:05:12;28.80;99.90
15203;DHT22;7702;51.046;5.184;2022-08-02T11:07:43;28.70;99.90
15203;DHT22;7702;51.046;5.184;2022-08-02T11:13:10;28.20;99.90
15203;DHT22;7702;51.046;5.184;2022-08-02T11:15:54;28.50;99.90
15203;DHT22;7702;51.046;5.184;2022-08-02T11:18:35;28.60;99.90
15203;DHT22;7702;51.046;5.184;2022-08-02T11:23:48;29.30;99.90
15203;DHT22;7702;51.046;5.184;2022-08-02T11:28:56;30.40;99.90
15203;DHT22;7702;51.046;5.184;2022-08-02T11:31:22;31.10;99.90
15203;DHT22;7702;51.046;5.184;2022-08-02T11:33:49;31.30;99.90
15203;DHT22;7702;51.046;5.184;2022-08-02T11:36:16;31.50;99.80
15203;DHT22;7702;51.046;5.184;2022-08-02T11:38:42;31.50;98.30
15203;DHT22;7702;51.046;5.184;2022-08-02T11:41:08;31.00;98.20
15203;DHT22;7702;51.046;5.184;2022-08-02T11:43:34;30.60;99.70
15203;DHT22;7702;51.046;5.184;2022-08-02T11:46:04;30.10;98.80
15203;DHT22;7702;51.046;5.184;2022-08-02T11:48:37;29.70;99.90
15203;DHT22;7702;51.046;5.184;2022-08-02T11:51:09;29.50;99.90
15203;DHT22;7702;51.046;5.184;2022-08-02T11:53:53;29.50;99.90
15203;DHT22;7702;51.046;5.184;2022-08-02T11:56:28;30.20;99.90
15203;DHT22;7702;51.046;5.184;2022-08-02T11:59:02;29.70;97.20
15203;DHT22;7702;51.046;5.184;2022-08-02T12:01:29;29.80;97.30
15203;DHT22;7702;51.046;5.184;2022-08-02T12:03:55;30.20;97.80
15203;DHT22;7702;51.046;5.184;2022-08-02T12:06:29;30.60;97.50
15203;DHT22;7702;51.046;5.184;2022-08-02T12:09:08;30.50;97.70
15203;DHT22;7702;51.046;5.184;2022-08-02T12:11:34;30.30;98.60
15203;DHT22;7702;51.046;5.184;2022-08-02T12:14:04;30.50;98.30
15203;DHT22;7702;51.046;5.184;2022-08-02T12:16:35;30.70;97.70
15203;DHT22;7702;51.046;5.184;2022-08-02T12:19:19;30.90;98.10
15203;DHT22;7702;51.046;5.184;2022-08-02T12:21:48;31.30;96.90
15203;DHT22;7702;51.046;5.184;2022-08-02T12:24:31;31.00;96.40
15203;DHT22;7702;51.046;5.184;2022-08-02T12:26:56;31.50;95.20
15203;DHT22;7702;51.046;5.184;2022-08-02T12:29:34;31.80;93.00
15203;DHT22;7702;51.046;5.184;2022-08-02T12:32:00;31.40;92.30
15203;DHT22;7702;51.046;5.184;2022-08-02T12:34:27;31.50;93.70
15203;DHT22;7702;51.046;5.184;2022-08-02T12:37:02;32.00;93.80
15203;DHT22;7702;51.046;5.184;2022-08-02T12:39:45;32.00;91.70
15203;DHT22;7702;51.046;5.184;2022-08-02T12:42:13;32.10;92.00
15203;DHT22;7702;51.046;5.184;2022-08-02T12:44:56;32.20;91.10
15203;DHT22;7702;51.046;5.184;2022-08-02T12:47:25;32.20;92.20
15203;DHT22;7702;51.046;5.184;2022-08-02T12:50:11;31.70;90.30
15203;DHT22;7702;51.046;5.184;2022-08-02T12:52:38;31.30;91.60
15203;DHT22;7702;51.046;5.184;2022-08-02T12:55:21;31.50;91.20
15203;DHT22;7702;51.046;5.184;2022-08-02T12:58:01;31.50;91.40
15203;DHT22;7702;51.046;5.184;2022-08-02T13:00:30;31.20;91.60
15203;DHT22;7702;51.046;5.184;2022-08-02T13:02:57;31.80;92.20
15203;DHT22;7702;51.046;5.184;2022-08-02T13:05:24;32.00;91.30
15203;DHT22;7702;51.046;5.184;2022-08-02T13:07:51;32.50;90.90
15203;DHT22;7702;51.046;5.184;2022-08-02T13:10:17;32.20;91.20
15203;DHT22;7702;51.046;5.184;2022-08-02T13:12:44;31.70;91.20
15203;DHT22;7702;51.046;5.184;2022-08-02T13:15:10;31.40;92.30
15203;DHT22;7702;51.046;5.184;2022-08-02T13:17:36;31.60;91.70
15203;DHT22;7702;51.046;5.184;2022-08-02T13:20:09;31.70;91.20
15203;DHT22;7702;51.046;5.184;2022-08-02T13:22:36;31.90;91.50
15203;DHT22;7702;51.046;5.184;2022-08-02T13:25:02;32.30;91.20
15203;DHT22;7702;51.046;5.184;2022-08-02T13:27:28;31.90;90.60
15203;DHT22;7702;51.046;5.184;2022-08-02T13:29:55;31.80;90.60
15203;DHT22;7702;51.046;5.184;2022-08-02T13:32:23;31.50;91.20
15203;DHT22;7702;51.046;5.184;2022-08-02T13:34:50;31.80;91.30
15203;DHT22;7702;51.046;5.184;2022-08-02T13:37:16;32.00;90.70
15203;DHT22;7702;51.046;5.184;2022-08-02T13:39:42;31.40;92.20
15203;DHT22;7702;51.046;5.184;2022-08-02T13:42:08;31.60;92.00
15203;DHT22;7702;51.046;5.184;2022-08-02T13:44:34;31.70;91.40
15203;DHT22;7702;51.046;5.184;2022-08-02T13:47:01;31.80;91.80
15203;DHT22;7702;51.046;5.184;2022-08-02T13:49:27;32.30;91.30
15203;DHT22;7702;51.046;5.184;2022-08-02T13:51:52;32.10;90.50
15203;DHT22;7702;51.046;5.184;2022-08-02T13:54:18;31.40;91.20
15203;DHT22;7702;51.046;5.184;2022-08-02T13:56:44;31.40;91.30
15203;DHT22;7702;51.046;5.184;2022-08-02T13:59:09;32.60;92.80
15203;DHT22;7702;51.046;5.184;2022-08-02T14:01:35;33.30;91.50
15203;DHT22;7702;51.046;5.184;2022-08-02T14:04:01;33.80;90.00
15203;DHT22;7702;51.046;5.184;2022-08-02T14:06:27;33.50;87.30
15203;DHT22;7702;51.046;5.184;2022-08-02T14:08:52;31.70;90.00
15203;DHT22;7702;51.046;5.184;2022-08-02T14:11:19;31.80;90.80
15203;DHT22;7702;51.046;5.184;2022-08-02T14:13:44;31.80;90.80
15203;DHT22;7702;51.046;5.184;2022-08-02T14:16:10;32.70;90.00
15203;DHT22;7702;51.046;5.184;2022-08-02T14:18:36;32.80;90.40
15203;DHT22;7702;51.046;5.184;2022-08-02T14:21:02;32.70;88.60
15203;DHT22;7702;51.046;5.184;2022-08-02T14:23:28;32.10;89.80
15203;DHT22;7702;51.046;5.184;2022-08-02T14:25:56;32.80;89.60
15203;DHT22;7702;51.046;5.184;2022-08-02T14:28:22;33.40;89.10
15203;DHT22;7702;51.046;5.184;2022-08-02T14:30:47;33.20;86.50
15203;DHT22;7702;51.046;5.184;2022-08-02T14:33:13;32.40;87.70
15203;DHT22;7702;51.046;5.184;2022-08-02T14:35:39;32.40;89.00
15203;DHT22;7702;51.046;5.184;2022-08-02T14:38:05;32.70;90.10
15203;DHT22;7702;51.046;5.184;2022-08-02T14:40:30;33.70;89.30
15203;DHT22;7702;51.046;5.184;2022-08-02T14:42:56;33.70;85.80
15203;DHT22;7702;51.046;5.184;2022-08-02T14:45:22;34.00;87.30
15203;DHT22;7702;51.046;5.184;2022-08-02T14:47:50;33.80;86.20
15203;DHT22;7702;51.046;5.184;2022-08-02T14:50:16;33.60;88.30
15203;DHT22;7702;51.046;5.184;2022-08-02T14:52:46;33.30;88.70
15203;DHT22;7702;51.046;5.184;2022-08-02T14:55:13;33.40;87.80
15203;DHT22;7702;51.046;5.184;2022-08-02T14:57:39;33.30;87.70
15203;DHT22;7702;51.046;5.184;2022-08-02T15:00:05;33.60;89.70
15203;DHT22;7702;51.046;5.184;2022-08-02T15:02:31;34.30;86.00
15203;DHT22;7702;51.046;5.184;2022-08-02T15:04:57;34.40;85.10
15203;DHT22;7702;51.046;5.184;2022-08-02T15:07:23;32.60;87.10
15203;DHT22;7702;51.046;5.184;2022-08-02T15:09:49;33.50;88.60
15203;DHT22;7702;51.046;5.184;2022-08-02T15:12:14;34.00;87.70
15203;DHT22;7702;51.046;5.184;2022-08-02T15:14:41;34.70;86.50
15203;DHT22;7702;51.046;5.184;2022-08-02T15:17:07;35.50;85.00
15203;DHT22;7702;51.046;5.184;2022-08-02T15:19:33;34.20;84.20
15203;DHT22;7702;51.046;5.184;2022-08-02T15:21:59;33.70;86.60
15203;DHT22;7702;51.046;5.184;2022-08-02T15:24:25;34.00;88.40
15203;DHT22;7702;51.046;5.184;2022-08-02T15:26:51;35.30;85.70
15203;DHT22;7702;51.046;5.184;2022-08-02T15:29:18;35.80;83.30
15203;DHT22;7702;51.046;5.184;2022-08-02T15:31:44;36.30;85.70
15203;DHT22;7702;51.046;5.184;2022-08-02T15:34:10;36.40;83.20
15203;DHT22;7702;51.046;5.184;2022-08-02T15:36:36;35.80;81.30
15203;DHT22;7702;51.046;5.184;2022-08-02T15:39:02;34.50;83.20
15203;DHT22;7702;51.046;5.184;2022-08-02T15:41:27;34.60;82.30
15203;DHT22;7702;51.046;5.184;2022-08-02T15:43:53;34.70;84.00
15203;DHT22;7702;51.046;5.184;2022-08-02T15:46:19;35.10;84.90
15203;DHT22;7702;51.046;5.184;2022-08-02T15:48:44;35.00;81.90
15203;DHT22;7702;51.046;5.184;2022-08-02T15:51:10;34.20;83.40
15203;DHT22;7702;51.046;5.184;2022-08-02T15:53:36;34.00;86.70
15203;DHT22;7702;51.046;5.184;2022-08-02T15:56:01;33.90;85.40
15203;DHT22;7702;51.046;5.184;2022-08-02T15:58:27;33.80;86.00
15203;DHT22;7702;51.046;5.184;2022-08-02T16:00:53;33.80;85.20
15203;DHT22;7702;51.046;5.184;2022-08-02T16:03:19;33.60;86.40
15203;DHT22;7702;51.046;5.184;2022-08-02T16:05:45;34.10;88.00
15203;DHT22;7702;51.046;5.184;2022-08-02T16:08:10;34.00;84.00
15203;DHT22;7702;51.046;5.184;2022-08-02T16:10:36;34.10;84.50
15203;DHT22;7702;51.046;5.184;2022-08-02T16:13:03;34.20;84.70
15203;DHT22;7702;51.046;5.184;2022-08-02T16:15:47;33.60;86.20
15203;DHT22;7702;51.046;5.184;2022-08-02T16:18:13;34.00;85.70
15203;DHT22;7702;51.046;5.184;2022-08-02T16:20:39;34.00;86.00
15203;DHT22;7702;51.046;5.184;2022-08-02T16:23:04;34.80;86.50
15203;DHT22;7702;51.046;5.184;2022-08-02T16:25:30;35.70;84.40